sensor_id;sensor_type;location;lat;lon;timestamp;temperature;humidity
7331;DHT22;3706;49.198;7.064;2023-10-31T00:01:05;10.30;99.90
7331;DHT22;3706;49.198;7.064;2023-10-31T00:03:34;10.30;99.90
7331;DHT22;3706;49.198;7.064;2023-10-31T00:06:01;10.30;99.90
7331;DHT22;3706;49.198;7.064;2023-10-31T00:08:28;10.30;99.90
7331;DHT22;3706;49.198;7.064;2023-10-31T00:10:55;10.30;99.90
7331;DHT22;3706;49.198;7.064;2023-10-31T00:13:22;10.30;99.90
7331;DHT22;3706;49.198;7.064;2023-10-31T00:15:49;10.30;99.90
7331;DHT22;3706;49.198;7.064;2023-10-31T00:18:16;10.30;99.90
7331;DHT22;3706;49.198;7.064;2023-10-31T00:20:45;10.40;99.90
7331;DHT22;3706;49.198;7.064;2023-10-31T00:23:13;10.40;99.90
7331;DHT22;3706;49.198;7.064;2023-10-31T00:25:40;10.30;99.90
7331;DHT22;3706;49.198;7.064;2023-10-31T00:28:07;10.30;99.90
7331;DHT22;3706;49.198;7.064;2023-10-31T00:30:34;10.30;99.90
7331;DHT22;3706;49.198;7.064;2023-10-31T00:33:01;10.20;99.90
7331;DHT22;3706;49.198;7.064;2023-10-31T00:35:28;10.20;99.90
7331;DHT22;3706;49.198;7.064;2023-10-31T00:37:57;10.10;99.90
7331;DHT22;3706;49.198;7.064;2023-10-31T00:40:24;10.10;99.90
7331;DHT22;3706;49.198;7.064;2023-10-31T00:42:51;10.00;99.90
7331;DHT22;3706;49.198;7.064;2023-10-31T00:45:19;10.00;99.90
7331;DHT22;3706;49.198;7.064;2023-10-31T00:47:46;10.00;99.90
7331;DHT22;3706;49.198;7.064;2023-10-31T00:50:13;10.00;99.90
7331;DHT22;3706;49.198;7.064;2023-10-31T00:52:40;10.10;99.90
7331;DHT22;3706;49.198;7.064;2023-10-31T00:55:08;10.10;99.90
7331;DHT22;3706;49.198;7.064;2023-10-31T00:57:35;10.00;99.90
7331;DHT22;3706;49.198;7.064;2023-10-31T01:00:03;10.00;99.90
7331;DHT22;3706;49.198;7.064;2023-10-31T01:02:30;10.00;99.90
7331;DHT22;3706;49.198;7.064;2023-10-31T01:04:56;10.00;99.90
7331;DHT22;3706;49.198;7.064;2023-10-31T01:07:23;10.00;99.90
7331;DHT22;3706;49.198;7.064;2023-10-31T01:09:50;10.00;99.90
7331;DHT22;3706;49.198;7.064;2023-10-31T01:12:19;10.00;99.90
7331;DHT22;3706;49.198;7.064;2023-10-31T01:14:46;10.00;99.90
7331;DHT22;3706;49.198;7.064;2023-10-31T01:17:12;10.00;99.90
7331;DHT22;3706;49.198;7.064;2023-10-31T01:19:41;10.00;99.90
7331;DHT22;3706;49.198;7.064;2023-10-31T01:22:08;10.00;99.90
7331;DHT22;3706;49.198;7.064;2023-10-31T01:24:35;10.00;99.90
7331;DHT22;3706;49.198;7.064;2023-10-31T01:27:02;10.00;99.90
7331;DHT22;3706;49.198;7.064;2023-10-31T01:29:30;10.00;99.90
7331;DHT22;3706;49.198;7.064;2023-10-31T01:31:57;10.00;99.90
7331;DHT22;3706;49.198;7.064;2023-10-31T01:34:24;10.00;99.90
7331;DHT22;3706;49.198;7.064;2023-10-31T01:36:51;10.00;99.90
7331;DHT22;3706;49.198;7.064;2023-10-31T01:39:18;10.00;99.90
7331;DHT22;3706;49.198;7.064;2023-10-31T01:41:45;10.00;99.90
7331;DHT22;3706;49.198;7.064;2023-10-31T01:44:13;10.00;99.90
7331;DHT22;3706;49.198;7.064;2023-10-31T01:46:41;10.00;99.90
7331;DHT22;3706;49.198;7.064;2023-10-31T01:49:08;10.00;99.90
7331;DHT22;3706;49.198;7.064;2023-10-31T01:51:35;10.00;99.90
7331;DHT22;3706;49.198;7.064;2023-10-31T01:54:02;9.90;99.90
7331;DHT22;3706;49.198;7.064;2023-10-31T01:56:29;9.90;99.90
7331;DHT22;3706;49.198;7.064;2023-10-31T01:58:56;9.90;99.90
7331;DHT22;3706;49.198;7.064;2023-10-31T02:01:23;9.90;99.90
7331;DHT22;3706;49.198;7.064;2023-10-31T02:03:53;9.90;99.90
7331;DHT22;3706;49.198;7.064;2023-10-31T02:06:20;9.90;99.90
7331;DHT22;3706;49.198;7.064;2023-10-31T02:08:48;9.90;99.90
7331;DHT22;3706;49.198;7.064;2023-10-31T02:11:15;9.90;99.90
7331;DHT22;3706;49.198;7.064;2023-10-31T02:13:42;9.90;99.90
7331;DHT22;3706;49.198;7.064;2023-10-31T02:16:09;9.80;99.90
7331;DHT22;3706;49.198;7.064;2023-10-31T02:18:35;9.80;99.90
7331;DHT22;3706;49.198;7.064;2023-10-31T02:21:04;9.80;99.90
7331;DHT22;3706;49.198;7.064;2023-10-31T02:23:32;9.70;99.90
7331;DHT22;3706;49.198;7.064;2023-10-31T02:25:59;9.70;99.90
7331;DHT22;3706;49.198;7.064;2023-10-31T02:28:26;9.70;99.90
7331;DHT22;3706;49.198;7.064;2023-10-31T02:30:53;9.70;99.90
7331;DHT22;3706;49.198;7.064;2023-10-31T02:33:21;9.70;99.90
7331;DHT22;3706;49.198;7.064;2023-10-31T02:35:48;9.80;99.90
7331;DHT22;3706;49.198;7.064;2023-10-31T02:38:15;9.80;99.90
7331;DHT22;3706;49.198;7.064;2023-10-31T02:40:43;9.80;99.90
7331;DHT22;3706;49.198;7.064;2023-10-31T02:43:10;9.90;99.90
7331;DHT22;3706;49.198;7.064;2023-10-31T02:45:37;9.90;99.90
7331;DHT22;3706;49.198;7.064;2023-10-31T02:48:04;9.80;99.90
7331;DHT22;3706;49.198;7.064;2023-10-31T02:50:31;9.80;99.90
7331;DHT22;3706;49.198;7.064;2023-10-31T02:52:58;9.80;99.90
7331;DHT22;3706;49.198;7.064;2023-10-31T02:55:25;9.80;99.90
7331;DHT22;3706;49.198;7.064;2023-10-31T02:57:53;9.90;99.90
7331;DHT22;3706;49.198;7.064;2023-10-31T03:00:20;9.90;99.90
7331;DHT22;3706;49.198;7.064;2023-10-31T03:02:47;9.90;99.90
7331;DHT22;3706;49.198;7.064;2023-10-31T03:05:14;9.90;99.90
7331;DHT22;3706;49.198;7.064;2023-10-31T03:07:41;9.90;99.90
7331;DHT22;3706;49.198;7.064;2023-10-31T03:10:08;9.90;99.90
7331;DHT22;3706;49.198;7.064;2023-10-31T03:12:35;9.90;99.90
7331;DHT22;3706;49.198;7.064;2023-10-31T03:15:04;9.80;99.90
7331;DHT22;3706;49.198;7.064;2023-10-31T03:17:31;9.80;99.90
7331;DHT22;3706;49.198;7.064;2023-10-31T03:19:58;9.80;99.90
7331;DHT22;3706;49.198;7.064;2023-10-31T03:22:25;9.80;99.90
7331;DHT22;3706;49.198;7.064;2023-10-31T03:24:52;9.80;99.90
7331;DHT22;3706;49.198;7.064;2023-10-31T03:27:19;9.80;99.90
7331;DHT22;3706;49.198;7.064;2023-10-31T03:29:46;9.80;99.90
7331;DHT22;3706;49.198;7.064;2023-10-31T03:32:14;9.80;99.90
7331;DHT22;3706;49.198;7.064;2023-10-31T03:34:42;9.80;99.90
7331;DHT22;3706;49.198;7.064;2023-10-31T03:37:08;9.70;99.90
7331;DHT22;3706;49.198;7.064;2023-10-31T03:39:35;9.70;99.90
7331;DHT22;3706;49.198;7.064;2023-10-31T03:42:02;9.80;99.90
7331;DHT22;3706;49.198;7.064;2023-10-31T03:44:30;9.70;99.90
7331;DHT22;3706;49.198;7.064;2023-10-31T03:46:57;9.80;99.90
7331;DHT22;3706;49.198;7.064;2023-10-31T03:49:26;9.80;99.90
7331;DHT22;3706;49.198;7.064;2023-10-31T03:51:53;9.80;99.90
7331;DHT22;3706;49.198;7.064;2023-10-31T03:54:19;9.80;99.90
7331;DHT22;3706;49.198;7.064;2023-10-31T03:56:46;9.80;99.90
7331;DHT22;3706;49.198;7.064;2023-10-31T03:59:14;9.80;99.90
7331;DHT22;3706;49.198;7.064;2023-10-31T04:01:41;9.80;99.90
7331;DHT22;3706;49.198;7.064;2023-10-31T04:04:08;9.80;99.90
7331;DHT22;3706;49.198;7.064;2023-10-31T04:06:36;9.80;99.90
7331;DHT22;3706;49.198;7.064;2023-10-31T04:09:06;9.80;99.90
7331;DHT22;3706;49.198;7.064;2023-10-31T04:11:33;9.80;99.90
7331;DHT22;3706;49.198;7.064;2023-10-31T04:14:00;9.80;99.90
7331;DHT22;3706;49.198;7.064;2023-10-31T04:16:27;9.80;99.90
7331;DHT22;3706;49.198;7.064;2023-10-31T04:18:54;9.80;99.90
7331;DHT22;3706;49.198;7.064;2023-10-31T04:21:20;9.80;99.90
7331;DHT22;3706;49.198;7.064;2023-10-31T04:23:49;9.80;99.90
7331;DHT22;3706;49.198;7.064;2023-10-31T04:26:16;9.90;99.90
7331;DHT22;3706;49.198;7.064;2023-10-31T04:28:42;9.90;99.90
7331;DHT22;3706;49.198;7.064;2023-10-31T04:31:09;9.90;99.90
7331;DHT22;3706;49.198;7.064;2023-10-31T04:33:36;9.90;99.90
7331;DHT22;3706;49.198;7.064;2023-10-31T04:36:04;9.90;99.90
7331;DHT22;3706;49.198;7.064;2023-10-31T04:38:31;9.90;99.90
7331;DHT22;3706;49.198;7.064;2023-10-31T04:40:59;9.80;99.90
7331;DHT22;3706;49.198;7.064;2023-10-31T04:43:26;9.90;99.90
7331;DHT22;3706;49.198;7.064;2023-10-31T04:45:53;9.90;99.90
7331;DHT22;3706;49.198;7.064;2023-10-31T04:48:20;9.90;99.90
7331;DHT22;3706;49.198;7.064;2023-10-31T04:50:47;9.90;99.90
7331;DHT22;3706;49.198;7.064;2023-10-31T04:53:14;9.90;99.90
7331;DHT22;3706;49.198;7.064;2023-10-31T04:55:41;9.90;99.90
7331;DHT22;3706;49.198;7.064;2023-10-31T04:58:09;9.90;99.90
7331;DHT22;3706;49.198;7.064;2023-10-31T05:00:36;9.90;99.90
7331;DHT22;3706;49.198;7.064;2023-10-31T05:03:03;9.90;99.90
7331;DHT22;3706;49.198;7.064;2023-10-31T05:05:30;9.90;99.90
7331;DHT22;3706;49.198;7.064;2023-10-31T05:07:57;9.90;99.90
7331;DHT22;3706;49.198;7.064;2023-10-31T05:10:24;9.90;99.90
7331;DHT22;3706;49.198;7.064;2023-10-31T05:12:51;9.90;99.90
7331;DHT22;3706;49.198;7.064;2023-10-31T05:15:20;9.90;99.90
7331;DHT22;3706;49.198;7.064;2023-10-31T05:17:47;9.90;99.90
7331;DHT22;3706;49.198;7.064;2023-10-31T05:20:15;9.80;99.90
7331;DHT22;3706;49.198;7.064;2023-10-31T05:22:41;9.80;99.90
7331;DHT22;3706;49.198;7.064;2023-10-31T05:25:08;9.80;99.90
7331;DHT22;3706;49.198;7.064;2023-10-31T05:27:35;9.80;99.90
7331;DHT22;3706;49.198;7.064;2023-10-31T05:30:03;9.80;99.90
7331;DHT22;3706;49.198;7.064;2023-10-31T05:32:31;9.70;99.90
7331;DHT22;3706;49.198;7.064;2023-10-31T05:34:58;9.70;99.90
7331;DHT22;3706;49.198;7.064;2023-10-31T05:37:25;9.70;99.90
7331;DHT22;3706;49.198;7.064;2023-10-31T05:39:52;9.70;99.90
7331;DHT22;3706;49.198;7.064;2023-10-31T05:42:19;9.60;99.90
7331;DHT22;3706;49.198;7.064;2023-10-31T05:44:46;9.50;99.90
7331;DHT22;3706;49.198;7.064;2023-10-31T05:47:13;9.40;99.90
7331;DHT22;3706;49.198;7.064;2023-10-31T05:49:43;9.40;99.90
7331;DHT22;3706;49.198;7.064;2023-10-31T05:52:10;9.30;99.90
7331;DHT22;3706;49.198;7.064;2023-10-31T05:54:37;9.20;99.90
7331;DHT22;3706;49.198;7.064;2023-10-31T05:57:03;9.20;99.90
7331;DHT22;3706;49.198;7.064;2023-10-31T05:59:30;9.20;99.90
7331;DHT22;3706;49.198;7.064;2023-10-31T06:01:57;9.20;99.90
7331;DHT22;3706;49.198;7.064;2023-10-31T06:04:25;9.30;99.90
7331;DHT22;3706;49.198;7.064;2023-10-31T06:06:53;9.30;99.90
7331;DHT22;3706;49.198;7.064;2023-10-31T06:09:20;9.30;99.90
7331;DHT22;3706;49.198;7.064;2023-10-31T06:11:47;9.40;99.90
7331;DHT22;3706;49.198;7.064;2023-10-31T06:14:14;9.40;99.90
7331;DHT22;3706;49.198;7.064;2023-10-31T06:16:41;9.40;99.90
7331;DHT22;3706;49.198;7.064;2023-10-31T06:19:09;9.50;99.90
7331;DHT22;3706;49.198;7.064;2023-10-31T06:21:36;9.50;99.90
7331;DHT22;3706;49.198;7.064;2023-10-31T06:24:05;9.50;99.90
7331;DHT22;3706;49.198;7.064;2023-10-31T06:26:32;9.50;99.90
7331;DHT22;3706;49.198;7.064;2023-10-31T06:28:59;9.50;99.90
7331;DHT22;3706;49.198;7.064;2023-10-31T06:31:26;9.50;99.90
7331;DHT22;3706;49.198;7.064;2023-10-31T06:33:53;9.50;99.90
7331;DHT22;3706;49.198;7.064;2023-10-31T06:36:20;9.50;99.90
7331;DHT22;3706;49.198;7.064;2023-10-31T06:38:47;9.60;99.90
7331;DHT22;3706;49.198;7.064;2023-10-31T06:41:15;9.60;99.90
7331;DHT22;3706;49.198;7.064;2023-10-31T06:43:42;9.70;99.90
7331;DHT22;3706;49.198;7.064;2023-10-31T06:46:09;9.70;99.90
7331;DHT22;3706;49.198;7.064;2023-10-31T06:48:36;9.70;99.90
7331;DHT22;3706;49.198;7.064;2023-10-31T06:51:04;9.80;99.90
7331;DHT22;3706;49.198;7.064;2023-10-31T06:53:31;9.80;99.90
7331;DHT22;3706;49.198;7.064;2023-10-31T06:55:57;9.80;99.90
7331;DHT22;3706;49.198;7.064;2023-10-31T06:58:26;9.80;99.90
7331;DHT22;3706;49.198;7.064;2023-10-31T07:00:53;9.90;99.90
7331;DHT22;3706;49.198;7.064;2023-10-31T07:03:20;10.00;99.90
7331;DHT22;3706;49.198;7.064;2023-10-31T07:05:47;10.00;99.90
7331;DHT22;3706;49.198;7.064;2023-10-31T07:08:14;10.10;99.90
7331;DHT22;3706;49.198;7.064;2023-10-31T07:10:41;10.10;99.90
7331;DHT22;3706;49.198;7.064;2023-10-31T07:13:08;10.10;99.90
7331;DHT22;3706;49.198;7.064;2023-10-31T07:15:36;10.20;99.90
7331;DHT22;3706;49.198;7.064;2023-10-31T07:18:05;10.10;99.90
7331;DHT22;3706;49.198;7.064;2023-10-31T07:20:33;10.20;99.90
7331;DHT22;3706;49.198;7.064;2023-10-31T07:23:00;10.20;99.90
7331;DHT22;3706;49.198;7.064;2023-10-31T07:25:27;10.20;99.90
7331;DHT22;3706;49.198;7.064;2023-10-31T07:27:54;10.30;99.90
7331;DHT22;3706;49.198;7.064;2023-10-31T07:30:21;10.30;99.90
7331;DHT22;3706;49.198;7.064;2023-10-31T07:32:49;10.40;99.90
7331;DHT22;3706;49.198;7.064;2023-10-31T07:35:16;10.40;99.90
7331;DHT22;3706;49.198;7.064;2023-10-31T07:37:45;10.40;99.90
7331;DHT22;3706;49.198;7.064;2023-10-31T07:40:12;10.50;99.90
7331;DHT22;3706;49.198;7.064;2023-10-31T07:42:39;10.50;99.90
7331;DHT22;3706;49.198;7.064;2023-10-31T07:45:07;10.60;99.90
7331;DHT22;3706;49.198;7.064;2023-10-31T07:47:34;10.70;99.90
7331;DHT22;3706;49.198;7.064;2023-10-31T07:50:02;10.80;99.90
7331;DHT22;3706;49.198;7.064;2023-10-31T07:52:29;11.00;99.90
7331;DHT22;3706;49.198;7.064;2023-10-31T07:54:56;11.10;99.90
7331;DHT22;3706;49.198;7.064;2023-10-31T07:57:23;11.20;99.90
7331;DHT22;3706;49.198;7.064;2023-10-31T07:59:50;11.20;99.90
7331;DHT22;3706;49.198;7.064;2023-10-31T08:02:17;11.10;99.90
7331;DHT22;3706;49.198;7.064;2023-10-31T08:04:44;11.10;99.90
7331;DHT22;3706;49.198;7.064;2023-10-31T08:07:12;11.10;99.90
7331;DHT22;3706;49.198;7.064;2023-10-31T08:09:39;11.10;99.90
7331;DHT22;3706;49.198;7.064;2023-10-31T08:12:07;11.20;99.90
7331;DHT22;3706;49.198;7.064;2023-10-31T08:14:34;11.30;99.90
7331;DHT22;3706;49.198;7.064;2023-10-31T08:17:00;11.40;99.90
7331;DHT22;3706;49.198;7.064;2023-10-31T08:19:27;11.50;99.90
7331;DHT22;3706;49.198;7.064;2023-10-31T08:21:54;11.60;99.90
7331;DHT22;3706;49.198;7.064;2023-10-31T08:24:23;11.70;99.90
7331;DHT22;3706;49.198;7.064;2023-10-31T08:26:50;11.70;99.90
7331;DHT22;3706;49.198;7.064;2023-10-31T08:29:16;11.60;99.90
7331;DHT22;3706;49.198;7.064;2023-10-31T08:31:43;11.60;99.90
7331;DHT22;3706;49.198;7.064;2023-10-31T08:34:10;11.50;99.90
7331;DHT22;3706;49.198;7.064;2023-10-31T08:36:37;11.30;99.90
7331;DHT22;3706;49.198;7.064;2023-10-31T08:39:04;11.10;99.90
7331;DHT22;3706;49.198;7.064;2023-10-31T08:41:33;10.90;99.90
7331;DHT22;3706;49.198;7.064;2023-10-31T08:44:00;10.90;99.90
7331;DHT22;3706;49.198;7.064;2023-10-31T08:46:29;10.80;99.90
7331;DHT22;3706;49.198;7.064;2023-10-31T08:48:56;10.80;99.90
7331;DHT22;3706;49.198;7.064;2023-10-31T08:51:22;10.70;99.90
7331;DHT22;3706;49.198;7.064;2023-10-31T08:53:50;10.60;99.90
7331;DHT22;3706;49.198;7.064;2023-10-31T08:56:16;10.60;99.90
7331;DHT22;3706;49.198;7.064;2023-10-31T08:58:46;10.70;99.90
7331;DHT22;3706;49.198;7.064;2023-10-31T09:01:13;10.80;99.90
7331;DHT22;3706;49.198;7.064;2023-10-31T09:03:40;10.90;99.90
7331;DHT22;3706;49.198;7.064;2023-10-31T09:06:07;10.90;99.90
7331;DHT22;3706;49.198;7.064;2023-10-31T09:08:34;10.90;99.90
7331;DHT22;3706;49.198;7.064;2023-10-31T09:11:03;11.10;99.90
7331;DHT22;3706;49.198;7.064;2023-10-31T09:13:30;11.20;99.90
7331;DHT22;3706;49.198;7.064;2023-10-31T09:15:59;11.20;99.90
7331;DHT22;3706;49.198;7.064;2023-10-31T09:18:26;11.20;99.90
7331;DHT22;3706;49.198;7.064;2023-10-31T09:20:53;11.10;99.90
7331;DHT22;3706;49.198;7.064;2023-10-31T09:23:20;11.10;99.90
7331;DHT22;3706;49.198;7.064;2023-10-31T09:25:47;11.10;99.90
7331;DHT22;3706;49.198;7.064;2023-10-31T09:28:14;11.20;99.90
7331;DHT22;3706;49.198;7.064;2023-10-31T09:30:41;11.20;99.90
7331;DHT22;3706;49.198;7.064;2023-10-31T09:33:09;11.30;99.90
7331;DHT22;3706;49.198;7.064;2023-10-31T09:35:36;11.50;99.90
7331;DHT22;3706;49.198;7.064;2023-10-31T09:38:03;11.70;99.90
7331;DHT22;3706;49.198;7.064;2023-10-31T09:40:33;11.90;99.90
7331;DHT22;3706;49.198;7.064;2023-10-31T09:43:00;12.10;99.90
7331;DHT22;3706;49.198;7.064;2023-10-31T09:45:27;12.20;99.90
7331;DHT22;3706;49.198;7.064;2023-10-31T09:47:54;12.20;99.90
7331;DHT22;3706;49.198;7.064;2023-10-31T09:50:22;12.30;99.90
7331;DHT22;3706;49.198;7.064;2023-10-31T09:52:50;12.30;99.90
7331;DHT22;3706;49.198;7.064;2023-10-31T09:55:18;12.30;99.90
7331;DHT22;3706;49.198;7.064;2023-10-31T09:57:46;12.30;99.90
7331;DHT22;3706;49.198;7.064;2023-10-31T10:00:13;12.30;99.90
7331;DHT22;3706;49.198;7.064;2023-10-31T10:02:40;12.40;99.90
7331;DHT22;3706;49.198;7.064;2023-10-31T10:05:09;12.50;99.90
7331;DHT22;3706;49.198;7.064;2023-10-31T10:07:41;12.60;99.90
7331;DHT22;3706;49.198;7.064;2023-10-31T10:10:10;12.70;99.90
7331;DHT22;3706;49.198;7.064;2023-10-31T10:12:37;12.90;99.90
7331;DHT22;3706;49.198;7.064;2023-10-31T10:15:04;13.20;99.90
7331;DHT22;3706;49.198;7.064;2023-10-31T10:17:32;13.40;99.90
7331;DHT22;3706;49.198;7.064;2023-10-31T10:20:07;13.50;99.90
7331;DHT22;3706;49.198;7.064;2023-10-31T10:22:38;13.50;99.90
7331;DHT22;3706;49.198;7.064;2023-10-31T10:25:10;13.40;99.90
7331;DHT22;3706;49.198;7.064;2023-10-31T10:27:39;13.60;99.90
7331;DHT22;3706;49.198;7.064;2023-10-31T10:30:08;13.90;99.90
7331;DHT22;3706;49.198;7.064;2023-10-31T10:32:35;14.10;99.90
7331;DHT22;3706;49.198;7.064;2023-10-31T10:35:03;14.30;99.90
7331;DHT22;3706;49.198;7.064;2023-10-31T10:37:30;14.70;99.90
7331;DHT22;3706;49.198;7.064;2023-10-31T10:40:00;14.90;99.90
7331;DHT22;3706;49.198;7.064;2023-10-31T10:42:32;15.00;99.90
7331;DHT22;3706;49.198;7.064;2023-10-31T10:45:02;14.80;99.90
7331;DHT22;3706;49.198;7.064;2023-10-31T10:47:31;14.90;99.90
7331;DHT22;3706;49.198;7.064;2023-10-31T10:49:59;15.10;99.90
7331;DHT22;3706;49.198;7.064;2023-10-31T10:52:29;15.30;99.90
7331;DHT22;3706;49.198;7.064;2023-10-31T10:55:03;15.50;99.90
7331;DHT22;3706;49.198;7.064;2023-10-31T10:57:37;15.70;99.90
7331;DHT22;3706;49.198;7.064;2023-10-31T11:00:06;15.90;99.90
7331;DHT22;3706;49.198;7.064;2023-10-31T11:02:37;16.00;99.90
7331;DHT22;3706;49.198;7.064;2023-10-31T11:05:05;16.10;99.90
7331;DHT22;3706;49.198;7.064;2023-10-31T11:07:34;16.20;99.90
7331;DHT22;3706;49.198;7.064;2023-10-31T11:10:03;16.10;99.90
7331;DHT22;3706;49.198;7.064;2023-10-31T11:12:30;15.90;99.90
7331;DHT22;3706;49.198;7.064;2023-10-31T11:14:58;15.70;99.90
7331;DHT22;3706;49.198;7.064;2023-10-31T11:17:28;15.50;99.90
7331;DHT22;3706;49.198;7.064;2023-10-31T11:19:56;15.40;99.90
7331;DHT22;3706;49.198;7.064;2023-10-31T11:22:23;15.30;99.90
7331;DHT22;3706;49.198;7.064;2023-10-31T11:24:51;15.10;99.90
7331;DHT22;3706;49.198;7.064;2023-10-31T11:27:19;15.00;99.90
7331;DHT22;3706;49.198;7.064;2023-10-31T11:29:47;14.80;99.90
7331;DHT22;3706;49.198;7.064;2023-10-31T11:32:14;14.70;99.90
7331;DHT22;3706;49.198;7.064;2023-10-31T11:34:42;14.60;99.90
7331;DHT22;3706;49.198;7.064;2023-10-31T11:37:23;14.50;99.90
7331;DHT22;3706;49.198;7.064;2023-10-31T11:40:15;14.40;99.90
7331;DHT22;3706;49.198;7.064;2023-10-31T11:42:46;14.70;99.90
7331;DHT22;3706;49.198;7.064;2023-10-31T11:45:25;15.40;99.90
7331;DHT22;3706;49.198;7.064;2023-10-31T11:47:52;16.20;99.90
7331;DHT22;3706;49.198;7.064;2023-10-31T11:50:19;17.20;99.90
7331;DHT22;3706;49.198;7.064;2023-10-31T11:53:02;18.00;99.90
7331;DHT22;3706;49.198;7.064;2023-10-31T11:55:30;18.30;99.90
7331;DHT22;3706;49.198;7.064;2023-10-31T11:58:14;18.30;99.90
7331;DHT22;3706;49.198;7.064;2023-10-31T12:00:41;18.00;99.90
7331;DHT22;3706;49.198;7.064;2023-10-31T12:03:10;17.60;99.90
7331;DHT22;3706;49.198;7.064;2023-10-31T12:05:37;17.20;99.90
7331;DHT22;3706;49.198;7.064;2023-10-31T12:08:04;16.90;99.90
7331;DHT22;3706;49.198;7.064;2023-10-31T12:10:31;16.60;99.90
7331;DHT22;3706;49.198;7.064;2023-10-31T12:13:00;16.40;99.90
7331;DHT22;3706;49.198;7.064;2023-10-31T12:15:27;16.20;99.90
7331;DHT22;3706;49.198;7.064;2023-10-31T12:17:58;16.00;99.90
7331;DHT22;3706;49.198;7.064;2023-10-31T12:20:25;15.80;99.90
7331;DHT22;3706;49.198;7.064;2023-10-31T12:23:02;15.60;99.90
7331;DHT22;3706;49.198;7.064;2023-10-31T12:25:30;15.50;99.90
7331;DHT22;3706;49.198;7.064;2023-10-31T12:28:02;15.40;99.90
7331;DHT22;3706;49.198;7.064;2023-10-31T12:30:29;15.30;99.90
7331;DHT22;3706;49.198;7.064;2023-10-31T12:32:56;15.30;99.90
7331;DHT22;3706;49.198;7.064;2023-10-31T12:35:26;15.20;99.90
7331;DHT22;3706;49.198;7.064;2023-10-31T12:37:53;15.20;99.90
7331;DHT22;3706;49.198;7.064;2023-10-31T12:40:23;15.20;99.90
7331;DHT22;3706;49.198;7.064;2023-10-31T12:42:52;15.20;99.90
7331;DHT22;3706;49.198;7.064;2023-10-31T12:45:20;15.30;99.90
7331;DHT22;3706;49.198;7.064;2023-10-31T12:48:00;15.40;99.90
7331;DHT22;3706;49.198;7.064;2023-10-31T12:50:28;15.50;99.90
7331;DHT22;3706;49.198;7.064;2023-10-31T12:52:55;15.70;99.90
7331;DHT22;3706;49.198;7.064;2023-10-31T12:55:26;15.80;99.90
7331;DHT22;3706;49.198;7.064;2023-10-31T12:57:54;15.80;99.90
7331;DHT22;3706;49.198;7.064;2023-10-31T13:00:29;15.90;99.90
7331;DHT22;3706;49.198;7.064;2023-10-31T13:03:10;15.90;99.90
7331;DHT22;3706;49.198;7.064;2023-10-31T13:05:37;15.90;99.90
7331;DHT22;3706;49.198;7.064;2023-10-31T13:08:13;15.90;99.90
7331;DHT22;3706;49.198;7.064;2023-10-31T13:10:40;16.00;99.90
7331;DHT22;3706;49.198;7.064;2023-10-31T13:13:07;16.10;99.90
7331;DHT22;3706;49.198;7.064;2023-10-31T13:15:35;16.10;99.90
7331;DHT22;3706;49.198;7.064;2023-10-31T13:18:03;16.10;99.90
7331;DHT22;3706;49.198;7.064;2023-10-31T13:20:30;16.10;99.90
7331;DHT22;3706;49.198;7.064;2023-10-31T13:22:58;15.90;99.90
7331;DHT22;3706;49.198;7.064;2023-10-31T13:25:28;15.60;99.90
7331;DHT22;3706;49.198;7.064;2023-10-31T13:27:55;15.30;99.90
7331;DHT22;3706;49.198;7.064;2023-10-31T13:30:22;14.80;99.90
7331;DHT22;3706;49.198;7.064;2023-10-31T13:32:52;14.30;99.90
7331;DHT22;3706;49.198;7.064;2023-10-31T13:35:19;13.80;99.90
7331;DHT22;3706;49.198;7.064;2023-10-31T13:37:46;13.40;99.90
7331;DHT22;3706;49.198;7.064;2023-10-31T13:40:13;13.10;99.90
7331;DHT22;3706;49.198;7.064;2023-10-31T13:42:40;12.80;99.90
7331;DHT22;3706;49.198;7.064;2023-10-31T13:45:08;12.60;99.90
7331;DHT22;3706;49.198;7.064;2023-10-31T13:47:35;12.50;99.90
7331;DHT22;3706;49.198;7.064;2023-10-31T13:50:06;12.40;99.90
7331;DHT22;3706;49.198;7.064;2023-10-31T13:52:34;12.50;99.90
7331;DHT22;3706;49.198;7.064;2023-10-31T13:55:01;12.60;99.90
7331;DHT22;3706;49.198;7.064;2023-10-31T13:57:28;12.60;99.90
7331;DHT22;3706;49.198;7.064;2023-10-31T13:59:55;12.70;99.90
7331;DHT22;3706;49.198;7.064;2023-10-31T14:02:22;12.60;99.90
7331;DHT22;3706;49.198;7.064;2023-10-31T14:04:48;12.50;99.90
7331;DHT22;3706;49.198;7.064;2023-10-31T14:07:21;12.50;99.90
7331;DHT22;3706;49.198;7.064;2023-10-31T14:09:48;12.40;99.90
7331;DHT22;3706;49.198;7.064;2023-10-31T14:12:15;12.50;99.90
7331;DHT22;3706;49.198;7.064;2023-10-31T14:14:42;12.60;99.90
7331;DHT22;3706;49.198;7.064;2023-10-31T14:17:10;12.60;99.90
7331;DHT22;3706;49.198;7.064;2023-10-31T14:19:39;12.70;99.90
7331;DHT22;3706;49.198;7.064;2023-10-31T14:22:06;12.70;99.90
7331;DHT22;3706;49.198;7.064;2023-10-31T14:24:34;12.70;99.90
7331;DHT22;3706;49.198;7.064;2023-10-31T14:27:01;12.60;99.90
7331;DHT22;3706;49.198;7.064;2023-10-31T14:29:28;12.50;99.90
7331;DHT22;3706;49.198;7.064;2023-10-31T14:31:55;12.40;99.90
7331;DHT22;3706;49.198;7.064;2023-10-31T14:34:23;12.30;99.90
7331;DHT22;3706;49.198;7.064;2023-10-31T14:36:50;12.30;99.90
7331;DHT22;3706;49.198;7.064;2023-10-31T14:39:16;12.50;99.90
7331;DHT22;3706;49.198;7.064;2023-10-31T14:41:45;12.60;99.90
7331;DHT22;3706;49.198;7.064;2023-10-31T14:44:12;12.70;99.90
7331;DHT22;3706;49.198;7.064;2023-10-31T14:46:39;12.80;99.90
7331;DHT22;3706;49.198;7.064;2023-10-31T14:49:06;12.80;99.90
7331;DHT22;3706;49.198;7.064;2023-10-31T14:51:33;12.70;99.90
7331;DHT22;3706;49.198;7.064;2023-10-31T14:54:00;12.70;99.90
7331;DHT22;3706;49.198;7.064;2023-10-31T14:56:27;12.70;99.90
7331;DHT22;3706;49.198;7.064;2023-10-31T14:58:57;12.70;99.90
7331;DHT22;3706;49.198;7.064;2023-10-31T15:01:24;12.70;99.90
7331;DHT22;3706;49.198;7.064;2023-10-31T15:03:51;12.60;99.90
7331;DHT22;3706;49.198;7.064;2023-10-31T15:06:18;12.60;99.90
7331;DHT22;3706;49.198;7.064;2023-10-31T15:08:45;12.60;99.90
7331;DHT22;3706;49.198;7.064;2023-10-31T15:11:12;12.70;99.90
7331;DHT22;3706;49.198;7.064;2023-10-31T15:13:41;12.70;99.90
7331;DHT22;3706;49.198;7.064;2023-10-31T15:16:09;12.60;99.90
7331;DHT22;3706;49.198;7.064;2023-10-31T15:18:36;12.60;99.90
7331;DHT22;3706;49.198;7.064;2023-10-31T15:21:04;12.50;99.90
7331;DHT22;3706;49.198;7.064;2023-10-31T15:23:31;12.50;99.90
7331;DHT22;3706;49.198;7.064;2023-10-31T15:25:58;12.50;99.90
7331;DHT22;3706;49.198;7.064;2023-10-31T15:28:26;12.40;99.90
7331;DHT22;3706;49.198;7.064;2023-10-31T15:30:53;12.40;99.90
7331;DHT22;3706;49.198;7.064;2023-10-31T15:33:21;12.40;99.90
7331;DHT22;3706;49.198;7.064;2023-10-31T15:35:48;12.30;99.90
7331;DHT22;3706;49.198;7.064;2023-10-31T15:38:15;12.30;99.90
7331;DHT22;3706;49.198;7.064;2023-10-31T15:40:43;12.20;99.90
7331;DHT22;3706;49.198;7.064;2023-10-31T15:43:10;12.20;99.90
7331;DHT22;3706;49.198;7.064;2023-10-31T15:45:38;12.10;99.90
7331;DHT22;3706;49.198;7.064;2023-10-31T15:48:06;12.10;99.90
7331;DHT22;3706;49.198;7.064;2023-10-31T15:50:35;12.00;99.90
7331;DHT22;3706;49.198;7.064;2023-10-31T15:53:02;11.90;99.90
7331;DHT22;3706;49.198;7.064;2023-10-31T15:55:29;11.90;99.90
7331;DHT22;3706;49.198;7.064;2023-10-31T15:57:56;11.80;99.90
7331;DHT22;3706;49.198;7.064;2023-10-31T16:00:23;11.70;99.90
7331;DHT22;3706;49.198;7.064;2023-10-31T16:02:52;11.70;99.90
7331;DHT22;3706;49.198;7.064;2023-10-31T16:05:20;11.60;99.90
7331;DHT22;3706;49.198;7.064;2023-10-31T16:07:50;11.60;99.90
7331;DHT22;3706;49.198;7.064;2023-10-31T16:10:17;11.50;99.90